createdAt,value
2017-08-16T00:01:57.271Z,6.68
2017-08-16T00:04:23.945Z,6.12
2017-08-16T00:06:50.619Z,5.97
2017-08-16T00:09:17.297Z,5.90
2017-08-16T00:11:43.977Z,5.90
2017-08-16T00:14:10.687Z,7.15
2017-08-16T00:16:37.358Z,5.47
2017-08-16T00:19:04.049Z,5.47
2017-08-16T00:21:30.723Z,5.80
2017-08-16T00:23:57.432Z,5.90
2017-08-16T00:26:24.130Z,7.12
2017-08-16T00:28:50.823Z,6.43
2017-08-16T00:31:17.501Z,6.50
2017-08-16T00:33:44.196Z,5.75
2017-08-16T00:36:10.932Z,6.32
2017-08-16T00:38:37.632Z,8.98
2017-08-16T00:41:04.298Z,5.95
2017-08-16T00:43:31.006Z,6.70
2017-08-16T00:45:57.681Z,8.32
2017-08-16T00:48:24.361Z,7.57
2017-08-16T00:50:51.041Z,6.28
2017-08-16T00:53:17.707Z,6.60
2017-08-16T00:55:44.377Z,7.20
2017-08-16T00:58:11.035Z,7.05
2017-08-16T01:00:37.720Z,6.82
2017-08-16T01:03:04.386Z,7.87
2017-08-16T01:05:31.089Z,6.60
2017-08-16T01:07:57.759Z,7.20
2017-08-16T01:10:24.464Z,7.80
2017-08-16T01:12:51.138Z,6.97
2017-08-16T01:15:17.849Z,6.45
2017-08-16T01:17:44.560Z,7.55
2017-08-16T01:20:11.233Z,6.37
2017-08-16T01:22:37.919Z,6.20
2017-08-16T01:25:04.593Z,6.53
2017-08-16T01:27:31.295Z,7.22
2017-08-16T01:29:58.025Z,6.60
2017-08-16T01:32:24.716Z,6.18
2017-08-16T01:34:51.375Z,6.20
2017-08-16T01:37:18.067Z,5.87
2017-08-16T01:39:44.762Z,6.65
2017-08-16T01:42:11.431Z,5.53
2017-08-16T01:44:38.095Z,6.20
2017-08-16T01:47:04.803Z,6.40
2017-08-16T01:49:31.474Z,6.32
2017-08-16T01:51:58.147Z,5.78
2017-08-16T01:54:24.829Z,5.60
2017-08-16T01:56:51.504Z,5.75
2017-08-16T01:59:18.200Z,5.55
2017-08-16T02:01:44.873Z,5.93
2017-08-16T02:04:11.576Z,5.30
2017-08-16T02:06:38.243Z,5.70
2017-08-16T02:09:04.942Z,5.93
2017-08-16T02:11:31.617Z,9.50
2017-08-16T02:13:58.308Z,6.60
2017-08-16T02:16:24.988Z,6.65
2017-08-16T02:18:51.662Z,6.18
2017-08-16T02:21:18.337Z,5.97
2017-08-16T02:23:45.015Z,6.35
2017-08-16T02:26:11.687Z,6.55
2017-08-16T02:28:38.360Z,6.20
2017-08-16T02:31:05.022Z,7.00
2017-08-16T02:33:31.694Z,6.37
2017-08-16T02:35:58.403Z,6.75
2017-08-16T02:38:25.079Z,6.18
2017-08-16T02:40:51.781Z,6.28
2017-08-16T02:43:18.439Z,5.50
2017-08-16T02:45:45.143Z,7.37
2017-08-16T02:48:11.815Z,5.93
2017-08-16T02:50:38.512Z,6.35
2017-08-16T02:53:05.191Z,6.18
2017-08-16T02:55:31.869Z,9.40
2017-08-16T02:57:58.551Z,6.62
2017-08-16T03:00:25.208Z,6.95
2017-08-16T03:02:51.888Z,7.00
2017-08-16T03:05:18.565Z,7.40
2017-08-16T03:07:45.240Z,7.50
2017-08-16T03:10:11.908Z,7.80
2017-08-16T03:12:38.576Z,8.05
2017-08-16T03:15:05.256Z,8.20
2017-08-16T03:17:31.929Z,8.77
2017-08-16T03:19:58.611Z,11.60
2017-08-16T03:22:25.318Z,12.55
2017-08-16T03:24:51.993Z,11.40
2017-08-16T03:27:18.691Z,16.02
2017-08-16T03:29:45.388Z,17.85
2017-08-16T03:32:12.072Z,15.40
2017-08-16T03:34:38.739Z,16.00
2017-08-16T03:37:05.408Z,14.73
2017-08-16T03:39:32.100Z,16.33
2017-08-16T03:41:58.819Z,14.65
2017-08-16T03:44:25.492Z,15.10
2017-08-16T03:46:52.166Z,19.67
2017-08-16T03:49:18.848Z,18.17
2017-08-16T03:51:45.529Z,18.05
2017-08-16T03:54:12.200Z,18.42
2017-08-16T03:56:38.874Z,27.55
2017-08-16T03:59:05.578Z,17.85
2017-08-16T04:01:32.260Z,20.48
2017-08-16T04:03:58.968Z,20.50
2017-08-16T04:06:25.641Z,21.27
2017-08-16T04:08:52.341Z,23.98
2017-08-16T04:11:19.027Z,26.17
2017-08-16T04:13:45.723Z,24.48
2017-08-16T04:16:12.396Z,27.33
2017-08-16T04:18:39.080Z,28.08
2017-08-16T04:21:05.773Z,31.62
2017-08-16T04:23:32.464Z,35.40
2017-08-16T04:25:59.148Z,38.03
2017-08-16T04:28:25.831Z,42.42
2017-08-16T04:30:52.537Z,44.45
2017-08-16T04:33:19.221Z,45.60
2017-08-16T04:35:45.951Z,48.40
2017-08-16T04:38:12.622Z,58.33
2017-08-16T04:40:39.304Z,51.58
2017-08-16T04:43:05.981Z,53.70
2017-08-16T04:45:33.457Z,62.15
2017-08-16T04:48:00.141Z,70.03
2017-08-16T04:50:26.821Z,68.25
2017-08-16T04:52:53.506Z,71.18
2017-08-16T04:55:20.189Z,72.72
2017-08-16T04:57:46.871Z,72.18
2017-08-16T05:00:13.552Z,72.50
2017-08-16T05:02:40.239Z,62.53
2017-08-16T05:05:06.924Z,71.75
2017-08-16T05:07:33.637Z,72.43
2017-08-16T05:10:00.311Z,69.30
2017-08-16T05:12:27.035Z,75.28
2017-08-16T05:14:53.713Z,64.22
2017-08-16T05:17:20.393Z,62.15
2017-08-16T05:19:47.081Z,68.53
2017-08-16T05:22:13.766Z,68.68
2017-08-16T05:24:40.516Z,70.22
2017-08-16T05:27:07.215Z,59.35
2017-08-16T05:29:33.910Z,63.33
2017-08-16T05:32:00.601Z,66.87
2017-08-16T05:34:27.283Z,64.18
2017-08-16T05:36:53.985Z,69.43
2017-08-16T05:39:20.686Z,62.88
2017-08-16T05:41:47.375Z,61.72
2017-08-16T05:44:14.152Z,62.47
2017-08-16T05:46:41.744Z,68.57
2017-08-16T05:49:08.660Z,63.05
2017-08-16T05:51:35.353Z,64.35
2017-08-16T05:54:02.093Z,59.10
2017-08-16T05:56:28.785Z,63.72
2017-08-16T05:58:55.466Z,63.40
2017-08-16T06:01:22.198Z,56.87
2017-08-16T06:03:48.870Z,64.13
2017-08-16T06:06:15.544Z,57.67
2017-08-16T06:08:42.218Z,56.03
2017-08-16T06:11:08.879Z,57.20
2017-08-16T06:13:35.546Z,60.83
2017-08-16T06:16:02.220Z,60.23
2017-08-16T06:18:28.887Z,51.87
2017-08-16T06:20:55.579Z,56.23
2017-08-16T06:23:22.255Z,53.27
2017-08-16T06:25:48.974Z,52.73
2017-08-16T06:28:15.655Z,55.53
2017-08-16T06:30:42.342Z,49.37
2017-08-16T06:33:09.007Z,52.83
2017-08-16T06:35:35.686Z,55.17
2017-08-16T06:38:02.386Z,55.63
2017-08-16T06:40:29.062Z,49.90
2017-08-16T06:42:55.784Z,50.47
2017-08-16T06:45:22.466Z,46.47
2017-08-16T06:47:49.183Z,46.37
2017-08-16T06:50:15.867Z,47.40
2017-08-16T06:52:42.576Z,42.80
2017-08-16T06:55:09.252Z,44.60
2017-08-16T06:57:35.949Z,45.10
2017-08-16T07:00:02.615Z,43.53
2017-08-16T07:02:29.316Z,41.17
2017-08-16T07:04:56.066Z,42.07
2017-08-16T07:07:22.739Z,42.33
2017-08-16T07:09:49.490Z,45.17
2017-08-16T07:12:16.164Z,43.00
2017-08-16T07:14:42.865Z,45.97
2017-08-16T07:17:09.534Z,44.57
2017-08-16T07:19:36.240Z,47.73
2017-08-16T07:22:02.915Z,43.90
2017-08-16T07:24:29.621Z,40.00
2017-08-16T07:26:56.295Z,41.23
2017-08-16T07:29:22.989Z,41.57
2017-08-16T07:31:49.675Z,42.27
2017-08-16T07:34:16.394Z,45.60
2017-08-16T07:36:43.061Z,43.10
2017-08-16T07:39:09.744Z,38.93
2017-08-16T07:41:36.463Z,40.03
2017-08-16T07:44:03.144Z,41.50
2017-08-16T07:46:29.839Z,47.43
2017-08-16T07:48:56.512Z,42.23
2017-08-16T07:51:23.209Z,40.83
2017-08-16T07:53:49.879Z,41.80
2017-08-16T07:56:16.581Z,43.37
2017-08-16T07:58:43.254Z,45.13
2017-08-16T08:01:09.924Z,43.53
2017-08-16T08:03:36.650Z,41.80
2017-08-16T08:06:03.373Z,39.43
2017-08-16T08:08:30.161Z,41.93
2017-08-16T08:10:56.831Z,40.07
2017-08-16T08:13:23.545Z,37.50
2017-08-16T08:15:50.231Z,41.10
2017-08-16T08:18:16.928Z,42.37
2017-08-16T08:20:43.605Z,39.83
2017-08-16T08:23:10.318Z,36.33
2017-08-16T08:25:37.007Z,39.40
2017-08-16T08:28:03.678Z,36.93
2017-08-16T08:30:30.352Z,37.60
2017-08-16T08:32:57.021Z,37.50
2017-08-16T08:35:23.724Z,37.73
2017-08-16T08:37:50.409Z,36.13
2017-08-16T08:40:17.099Z,36.07
2017-08-16T08:42:43.781Z,34.60
2017-08-16T08:45:10.479Z,35.87
2017-08-16T08:47:37.141Z,34.30
2017-08-16T08:50:03.877Z,36.57
2017-08-16T08:52:30.555Z,37.20
2017-08-16T09:01:10.380Z,31.40
2017-08-16T09:03:37.062Z,31.30
2017-08-16T09:06:03.758Z,28.33
2017-08-16T09:08:30.432Z,25.03
2017-08-16T09:10:57.105Z,22.97
2017-08-16T09:13:23.768Z,22.80
2017-08-16T09:15:50.482Z,25.13
2017-08-16T09:18:17.148Z,21.97
2017-08-16T09:20:43.816Z,23.97
2017-08-16T09:23:10.487Z,21.30
2017-08-16T09:25:37.160Z,23.30
2017-08-16T09:28:03.839Z,23.63
2017-08-16T09:30:30.524Z,22.27
2017-08-16T09:32:57.192Z,22.90
2017-08-16T09:35:23.920Z,20.63
2017-08-16T09:37:50.632Z,19.60
2017-08-16T09:40:17.307Z,22.07
2017-08-16T09:42:44.008Z,21.43
2017-08-16T09:45:10.679Z,18.50
2017-08-16T09:47:37.378Z,21.73
2017-08-16T09:50:04.054Z,20.60
2017-08-16T09:52:30.715Z,19.97
2017-08-16T09:54:57.380Z,17.77
2017-08-16T09:57:24.058Z,21.43
2017-08-16T09:59:50.775Z,23.47
2017-08-16T10:02:17.461Z,20.07
2017-08-16T10:04:44.152Z,20.73
2017-08-16T10:51:41.040Z,13.60
2017-08-16T10:54:07.728Z,11.80
2017-08-16T10:56:34.412Z,10.70
2017-08-16T10:59:01.077Z,11.00
2017-08-16T11:01:27.756Z,9.10
2017-08-16T11:03:54.449Z,12.43
2017-08-16T11:06:21.112Z,8.47
2017-08-16T11:08:47.792Z,9.00
2017-08-16T11:11:14.449Z,7.30
2017-08-16T11:13:41.131Z,8.87
2017-08-16T11:16:07.791Z,8.17
2017-08-16T11:18:34.467Z,8.47
2017-08-16T11:21:01.586Z,10.47
2017-08-16T11:23:28.321Z,8.50
2017-08-16T11:25:54.980Z,8.63
2017-08-16T11:28:21.660Z,6.90
2017-08-16T11:30:48.319Z,7.80
2017-08-16T11:33:15.097Z,8.10
2017-08-16T11:35:41.808Z,7.70
2017-08-16T11:38:08.611Z,7.90
2017-08-16T11:40:35.280Z,7.47
2017-08-16T11:43:01.990Z,6.40
2017-08-16T11:45:28.671Z,6.93
2017-08-16T11:47:55.328Z,7.87
2017-08-16T11:50:21.997Z,8.07
2017-08-16T11:52:48.654Z,7.80
2017-08-16T11:55:15.344Z,7.20
2017-08-16T11:57:42.029Z,6.80
2017-08-16T12:00:08.760Z,8.60
2017-08-16T12:02:35.452Z,7.60
2017-08-16T12:05:02.139Z,7.77
2017-08-16T12:07:28.795Z,7.70
2017-08-16T12:09:55.501Z,8.87
2017-08-16T12:12:22.169Z,7.70
2017-08-16T12:14:48.849Z,7.30
2017-08-16T12:17:15.525Z,7.67
2017-08-16T12:19:42.208Z,7.07
2017-08-16T12:22:08.951Z,7.20
2017-08-16T12:24:35.655Z,7.07
2017-08-16T12:27:02.331Z,8.20
2017-08-16T12:29:28.984Z,7.23
2017-08-16T12:31:55.718Z,7.70
2017-08-16T12:34:22.403Z,8.10
2017-08-16T12:36:49.145Z,7.00
2017-08-16T12:39:15.813Z,7.60
2017-08-16T12:41:42.500Z,7.40
2017-08-16T12:44:09.162Z,7.33
2017-08-16T12:46:35.848Z,8.03
2017-08-16T12:49:02.503Z,7.23
2017-08-16T12:51:29.184Z,6.30
2017-08-16T12:53:55.852Z,6.00
2017-08-16T12:56:22.560Z,7.37
2017-08-16T12:58:49.289Z,6.77
2017-08-16T13:01:15.960Z,7.97
2017-08-16T13:03:42.620Z,7.60
2017-08-16T13:06:09.287Z,6.00
2017-08-16T13:08:35.946Z,6.73
2017-08-16T13:11:02.600Z,7.57
2017-08-16T13:13:29.296Z,7.47
2017-08-16T13:15:55.968Z,7.90
2017-08-16T13:18:22.694Z,7.67
2017-08-16T13:20:49.388Z,6.03
2017-08-16T13:23:16.064Z,6.57
2017-08-16T13:25:42.726Z,6.37
2017-08-16T13:28:09.386Z,5.87
2017-08-16T13:30:36.046Z,6.20
2017-08-16T13:33:02.720Z,5.40
2017-08-16T13:35:29.379Z,5.20
2017-08-16T13:37:56.052Z,5.27
2017-08-16T13:40:22.750Z,5.27
2017-08-16T13:42:49.516Z,6.30
2017-08-16T13:45:16.183Z,5.20
2017-08-16T13:47:42.847Z,5.97
2017-08-16T13:50:09.528Z,5.93
2017-08-16T13:52:36.200Z,5.97
2017-08-16T13:55:02.904Z,5.53
2017-08-16T13:57:29.600Z,5.47
2017-08-16T13:59:56.364Z,5.53
2017-08-16T14:02:23.041Z,5.30
2017-08-16T14:04:49.737Z,5.73
2017-08-16T14:07:16.404Z,6.93
2017-08-16T14:09:43.072Z,7.33
2017-08-16T14:12:09.740Z,6.33
2017-08-16T14:14:36.395Z,5.93
2017-08-16T14:17:03.057Z,5.90
2017-08-16T14:19:29.721Z,5.67
2017-08-16T14:21:56.414Z,6.40
2017-08-16T14:24:23.086Z,6.27
2017-08-16T14:26:49.816Z,5.33
2017-08-16T14:29:16.483Z,6.00
2017-08-16T14:31:43.147Z,6.20
2017-08-16T14:34:09.807Z,6.17
2017-08-16T14:36:36.464Z,6.27
2017-08-16T14:39:03.116Z,5.83
2017-08-16T14:41:29.773Z,5.83
2017-08-16T14:43:56.457Z,5.30
2017-08-16T14:46:23.156Z,5.50
2017-08-16T14:48:49.874Z,5.67
2017-08-16T14:51:16.535Z,6.20
2017-08-16T14:53:43.191Z,5.20
2017-08-16T14:56:09.849Z,5.00
2017-08-16T14:58:36.554Z,5.83
2017-08-16T15:01:03.225Z,4.90
2017-08-16T15:03:29.892Z,4.80
2017-08-16T15:05:56.555Z,4.50
2017-08-16T15:08:23.244Z,5.07
2017-08-16T15:10:49.944Z,4.87
2017-08-16T15:13:16.599Z,5.23
2017-08-16T15:15:43.260Z,4.80
2017-08-16T15:18:09.916Z,4.90
2017-08-16T15:20:36.564Z,5.00
2017-08-16T15:23:03.224Z,4.80
2017-08-16T15:25:29.879Z,4.83
2017-08-16T15:27:56.551Z,5.03
2017-08-16T15:30:23.235Z,4.90
2017-08-16T15:32:49.924Z,5.93
2017-08-16T15:35:16.580Z,6.43
2017-08-16T15:37:43.259Z,5.40
2017-08-16T15:40:09.928Z,5.20
2017-08-16T15:42:36.597Z,5.40
2017-08-16T15:45:03.308Z,5.33
2017-08-16T15:47:29.960Z,5.90
2017-08-16T15:49:56.631Z,4.50
2017-08-16T15:52:23.311Z,4.50
2017-08-16T15:54:49.990Z,4.90
2017-08-16T15:57:16.647Z,4.97
2017-08-16T15:59:43.315Z,4.50
2017-08-16T16:02:10.004Z,4.80
2017-08-16T16:04:36.661Z,4.77
2017-08-16T16:07:03.349Z,4.93
2017-08-16T16:09:30.016Z,4.87
2017-08-16T16:11:56.748Z,4.87
2017-08-16T16:14:23.423Z,4.93
2017-08-16T16:16:50.125Z,4.93
2017-08-16T16:19:16.823Z,5.27
2017-08-16T16:21:43.486Z,7.40
2017-08-16T16:24:10.164Z,5.87
2017-08-16T16:26:36.824Z,5.20
2017-08-16T16:29:03.504Z,5.40
2017-08-16T16:31:30.167Z,6.77
2017-08-16T16:33:56.868Z,4.77
2017-08-16T16:36:23.562Z,4.77
2017-08-16T16:38:50.280Z,5.83
2017-08-16T16:41:16.948Z,4.80
2017-08-16T16:43:43.605Z,5.10
2017-08-16T16:46:10.272Z,5.13
2017-08-16T16:48:36.932Z,4.40
2017-08-16T16:51:03.620Z,3.73
2017-08-16T16:53:30.289Z,4.30
2017-08-16T16:55:56.983Z,4.83
2017-08-16T16:58:23.648Z,5.47
2017-08-16T17:00:50.355Z,5.10
2017-08-16T17:03:17.023Z,4.53
2017-08-16T17:05:43.704Z,4.63
2017-08-16T17:08:10.368Z,6.40
2017-08-16T17:10:37.090Z,4.50
2017-08-16T17:13:03.743Z,4.60
2017-08-16T17:15:30.435Z,4.30
2017-08-16T17:17:57.204Z,4.37
2017-08-16T17:20:23.944Z,5.43
2017-08-16T17:22:51.480Z,5.70
2017-08-16T17:25:20.039Z,6.50
2017-08-16T17:27:46.708Z,5.80
2017-08-16T17:30:13.363Z,4.87
2017-08-16T17:32:40.020Z,4.43
2017-08-16T17:35:06.675Z,5.00
2017-08-16T17:37:33.374Z,4.47
2017-08-16T17:40:00.841Z,5.30
2017-08-16T17:42:27.565Z,4.53
2017-08-16T17:44:54.315Z,5.47
2017-08-16T17:47:21.093Z,4.60
2017-08-16T17:49:47.772Z,4.57
2017-08-16T17:52:14.461Z,5.83
2017-08-16T17:54:41.137Z,5.00
2017-08-16T17:57:07.815Z,5.00
2017-08-16T17:59:34.470Z,5.80
2017-08-16T18:02:01.176Z,4.53
2017-08-16T18:04:27.853Z,4.90
2017-08-16T18:06:54.539Z,5.57
2017-08-16T18:09:21.248Z,4.97
2017-08-16T18:11:47.932Z,5.10
2017-08-16T18:14:14.599Z,5.57
2017-08-16T18:16:41.257Z,5.13
2017-08-16T18:19:07.935Z,4.80
2017-08-16T18:21:34.591Z,6.30
2017-08-16T18:24:01.276Z,6.07
2017-08-16T18:26:27.952Z,5.83
2017-08-16T18:28:54.640Z,7.13
2017-08-16T18:31:21.311Z,7.00
2017-08-16T18:33:48.008Z,5.80
2017-08-16T18:36:14.671Z,6.90
2017-08-16T18:38:41.358Z,6.87
2017-08-16T18:41:08.021Z,6.10
2017-08-16T18:43:34.719Z,6.30
2017-08-16T18:46:01.387Z,6.82
2017-08-16T18:48:28.035Z,6.07
2017-08-16T18:50:54.718Z,6.30
2017-08-16T18:53:21.512Z,6.22
2017-08-16T18:55:48.179Z,5.93
2017-08-16T18:58:14.851Z,6.82
2017-08-16T19:00:41.518Z,9.25
2017-08-16T19:03:08.204Z,15.60
2017-08-16T19:05:34.912Z,14.85
2017-08-16T19:08:01.597Z,13.10
2017-08-16T19:10:28.319Z,11.35
2017-08-16T19:12:55.002Z,13.23
2017-08-16T19:15:21.774Z,12.18
2017-08-16T19:17:48.447Z,11.52
2017-08-16T19:20:15.123Z,9.50
2017-08-16T19:22:41.783Z,8.95
2017-08-16T19:25:08.462Z,8.18
2017-08-16T19:27:35.123Z,8.07
2017-08-16T19:30:01.811Z,8.52
2017-08-16T19:32:28.497Z,8.10
2017-08-16T19:34:55.199Z,8.32
2017-08-16T19:37:21.901Z,8.25
2017-08-16T19:39:48.564Z,9.27
2017-08-16T19:42:15.234Z,8.50
2017-08-16T19:44:41.911Z,10.80
2017-08-16T19:47:08.612Z,9.35
2017-08-16T19:49:35.267Z,8.85
2017-08-16T19:52:01.956Z,8.73
2017-08-16T19:54:28.666Z,9.40
2017-08-16T19:56:55.351Z,10.60
2017-08-16T19:59:22.046Z,10.25
2017-08-16T20:01:48.731Z,10.30
2017-08-16T20:04:15.408Z,10.38
2017-08-16T20:06:42.073Z,9.75
2017-08-16T20:09:08.759Z,10.95
2017-08-16T20:11:35.443Z,11.52
2017-08-16T20:14:02.116Z,12.10
2017-08-16T20:16:28.800Z,11.80
2017-08-16T20:18:55.480Z,11.00
2017-08-16T20:21:22.194Z,11.88
2017-08-16T20:23:48.896Z,11.88
2017-08-16T20:26:15.574Z,12.27
2017-08-16T20:28:42.276Z,11.95
2017-08-16T20:31:08.956Z,11.93
2017-08-16T20:33:35.672Z,12.10
2017-08-16T20:36:02.356Z,12.82
2017-08-16T20:38:29.029Z,13.30
2017-08-16T20:40:55.929Z,13.98
2017-08-16T20:43:22.702Z,12.85
2017-08-16T20:45:49.394Z,12.70
2017-08-16T20:48:16.064Z,13.50
2017-08-16T20:50:42.733Z,13.32
2017-08-16T20:53:09.404Z,14.35
2017-08-16T20:55:36.081Z,14.45
2017-08-16T20:58:02.751Z,14.75
2017-08-16T21:00:29.464Z,15.05
2017-08-16T21:02:56.181Z,14.10
2017-08-16T21:05:22.872Z,14.07
2017-08-16T21:07:49.557Z,14.65
2017-08-16T21:10:16.240Z,14.80
2017-08-16T21:12:42.917Z,15.00
2017-08-16T21:15:09.587Z,16.65
2017-08-16T21:17:36.259Z,17.08
2017-08-16T21:20:02.944Z,18.52
2017-08-16T21:22:29.636Z,14.70
2017-08-16T21:24:56.313Z,15.23
2017-08-16T21:27:23.056Z,17.00
2017-08-16T21:29:49.732Z,17.30
2017-08-16T21:32:16.439Z,18.05
2017-08-16T21:34:43.105Z,19.05
2017-08-16T21:37:09.816Z,18.10
2017-08-16T21:39:36.480Z,18.83
2017-08-16T21:42:03.148Z,16.80
2017-08-16T21:44:29.836Z,19.65
2017-08-16T21:46:56.530Z,18.87
2017-08-16T21:49:23.280Z,19.48
2017-08-16T21:51:50.000Z,19.90
2017-08-16T21:54:16.695Z,18.05
2017-08-16T21:56:43.383Z,20.15
2017-08-16T21:59:10.072Z,19.85
2017-08-16T22:01:36.745Z,19.73
2017-08-16T22:04:03.434Z,18.75
2017-08-16T22:06:30.112Z,17.52
2017-08-16T22:08:56.823Z,17.37
2017-08-16T22:11:23.520Z,16.67
2017-08-16T22:13:50.232Z,16.83
2017-08-16T22:16:32.296Z,15.65
2017-08-16T22:18:59.959Z,13.77
2017-08-16T22:21:27.279Z,13.62
2017-08-16T22:23:55.061Z,14.13
2017-08-16T22:26:22.191Z,16.20
2017-08-16T22:28:49.147Z,14.85
2017-08-16T22:31:16.489Z,15.82
2017-08-16T22:33:43.539Z,16.00
2017-08-16T22:36:10.526Z,16.40
2017-08-16T22:38:37.440Z,15.88
2017-08-16T22:41:04.145Z,15.52
2017-08-16T22:43:30.835Z,15.93
2017-08-16T22:45:57.563Z,15.15
2017-08-16T22:48:24.535Z,14.85
2017-08-16T22:50:51.253Z,13.40
2017-08-16T22:53:17.933Z,14.80
2017-08-16T22:55:44.647Z,14.07
2017-08-16T22:58:11.625Z,13.85
2017-08-16T23:00:38.376Z,12.68
2017-08-16T23:03:05.076Z,14.02
2017-08-16T23:05:31.801Z,13.57
2017-08-16T23:07:58.489Z,10.82
2017-08-16T23:10:25.229Z,10.95
2017-08-16T23:12:51.945Z,11.05
2017-08-16T23:15:18.643Z,10.20
2017-08-16T23:17:45.349Z,11.35
2017-08-16T23:20:12.022Z,10.25
2017-08-16T23:22:38.738Z,11.35
2017-08-16T23:25:05.654Z,10.10
2017-08-16T23:27:32.371Z,11.30
2017-08-16T23:29:59.072Z,11.23
2017-08-16T23:32:25.976Z,11.05
2017-08-16T23:34:52.696Z,10.43
2017-08-16T23:37:19.613Z,12.07
2017-08-16T23:39:46.305Z,11.98
2017-08-16T23:42:12.998Z,12.40
2017-08-16T23:44:39.688Z,11.52
2017-08-16T23:47:06.377Z,13.77
2017-08-16T23:49:33.088Z,11.65
2017-08-16T23:51:59.778Z,13.20
2017-08-16T23:54:26.742Z,13.00
2017-08-16T23:56:53.429Z,13.40
2017-08-16T23:59:20.148Z,13.65
